Vancouver International Airport
CYVR : now visible

Airfield :











YOU CAN JOIN US ON...

 
LOGIN :

Register | Disclaimer

   EN    FR    IT 

 









Legend :    VFR   Marginal VFR   IFR   Intensive IFR   Very Intensive IFR
Visi :
Ceiling :
>= 8 km
>= 3000ft
5 to 8 km
1000 to 3000 ft
1500m to 5 km
500 to 1000 ft
800 to 1500m
200 to 500 ft
< 800m
< 200 ft
Symbols :   Thunderstorms  Fog  Heavy snow  Heavy precipitations  Wind > 20 kt






- Airport Elevation : 14 ft
- IATA code : YVR


CYVR - Vancouver International

CURRENT METAR :
  • 052333Z 30004KT 15SM -RA BKN020 OVC031 07/07 A2993 RMK SC6SC2 SLP136

EXPIRED METARs :
  • 052300Z 29007KT 200V290 15SM SCT021 BKN030 OVC039 08/08 A2990 RMK SC3SC3SC2 SLP128
  • 052200Z 11004KT 070V150 15SM -RA FEW015 BKN041 OVC100 09/09 A2987 RMK CU1SC7AC1 CU TR SLP117

TAF TAF CYVR
Valid from the 06 at 00:00 until the 07 at 06:00 UTC


052340Z 0600/0706 28008KT P6SM FEW020 BKN060
FM060200 27012G22KT P6SM SCT040
TEMPO 0602/0610 BKN040
BECMG 0608/0610 VRB03KT
FM061000 09008KT P6SM -RA SCT008 BKN030
TEMPO 0610/0706 3SM -RA BR BKN008
BECMG 0616/0618 13015G25KT RMK NXT FCST BY 060300Z
CZVR FIR / North America



MET'MAP, your aeronautical weather chart ! - Copyright ORBIFLY December 2007 - Disclaimer

ORBIFLY MET'MAP TEAM :

Programming & Development : Alexandra Zaïnal
Original concept : Baudouin d'Aumeries
Technical & hardware support : Manuel Goepfert
Assistance : Marc-Olivier Méhu




SOURCES & CREDITS :

   NOAA       Earth
Advisory